createdAt,value
2018-03-04T00:00:22.299Z,95.07
2018-03-04T00:02:49.894Z,94.81
2018-03-04T00:05:17.594Z,94.05
2018-03-04T00:07:45.163Z,93.88
2018-03-04T00:10:12.913Z,93.81
2018-03-04T00:12:40.554Z,95.64
2018-03-04T00:15:08.263Z,96.44
2018-03-04T00:17:36.129Z,96.52
2018-03-04T00:20:03.778Z,95.96
2018-03-04T00:22:41.493Z,95.10
2018-03-04T00:25:09.243Z,95.50
2018-03-04T00:27:37.083Z,95.02
2018-03-04T00:30:04.619Z,94.32
2018-03-04T00:32:32.158Z,93.78
2018-03-04T00:34:59.801Z,93.88
2018-03-04T00:37:27.343Z,94.68
2018-03-04T00:39:54.954Z,95.25
2018-03-04T00:42:22.584Z,94.97
2018-03-04T00:44:50.139Z,94.50
2018-03-04T00:47:18.042Z,93.63
2018-03-04T00:49:45.863Z,92.31
2018-03-04T00:52:13.549Z,93.84
2018-03-04T00:54:41.280Z,94.57
2018-03-04T00:57:08.972Z,94.04
2018-03-04T00:59:36.549Z,94.30
2018-03-04T01:02:04.295Z,94.29
2018-03-04T01:04:31.981Z,93.27
2018-03-04T01:07:00.030Z,94.65
2018-03-04T01:09:27.600Z,94.27
2018-03-04T01:11:55.162Z,95.25
2018-03-04T01:14:22.754Z,95.75
2018-03-04T01:16:50.288Z,94.38
2018-03-04T01:19:17.836Z,94.08
2018-03-04T01:21:45.397Z,94.69
2018-03-04T01:24:13.009Z,94.02
2018-03-04T01:26:40.705Z,92.57
2018-03-04T01:29:08.639Z,94.08
2018-03-04T01:31:36.318Z,94.35
2018-03-04T01:34:04.004Z,94.66
2018-03-04T01:36:31.544Z,95.54
2018-03-04T01:38:59.139Z,95.81
2018-03-04T01:41:27.060Z,95.61
2018-03-04T01:43:54.700Z,95.55
2018-03-04T01:46:22.344Z,95.50
2018-03-04T01:48:50.018Z,95.55
2018-03-04T01:51:17.864Z,95.86
2018-03-04T01:53:45.585Z,95.92
2018-03-04T01:56:13.205Z,96.06
2018-03-04T01:58:40.834Z,96.30
2018-03-04T02:01:08.419Z,96.39
2018-03-04T02:03:35.991Z,95.77
2018-03-04T02:06:03.698Z,95.69
2018-03-04T02:08:31.449Z,95.84
2018-03-04T02:10:59.224Z,95.80
2018-03-04T02:13:26.955Z,95.58
2018-03-04T02:15:54.887Z,95.99
2018-03-04T02:18:22.655Z,95.95
2018-03-04T02:20:50.174Z,95.77
2018-03-04T02:23:18.325Z,94.99
2018-03-04T02:25:46.574Z,96.33
2018-03-04T02:28:14.130Z,96.64
2018-03-04T02:30:42.009Z,96.60
2018-03-04T02:33:09.685Z,97.17
2018-03-04T02:35:37.529Z,97.12
2018-03-04T02:38:05.071Z,96.88
2018-03-04T02:40:32.628Z,96.77
2018-03-04T02:43:00.260Z,96.64
2018-03-04T02:45:27.820Z,96.96
2018-03-04T02:47:55.353Z,97.18
2018-03-04T02:50:22.898Z,96.48
2018-03-04T02:52:50.483Z,96.66
2018-03-04T02:55:18.176Z,97.18
2018-03-04T02:57:45.848Z,97.14
2018-03-04T03:00:13.410Z,97.19
2018-03-04T03:02:41.000Z,97.43
2018-03-04T03:05:08.639Z,97.26
2018-03-04T03:07:36.410Z,97.35
2018-03-04T03:10:04.088Z,97.21
2018-03-04T03:12:31.772Z,96.86
2018-03-04T03:14:59.304Z,95.76
2018-03-04T03:17:27.400Z,96.38
2018-03-04T03:19:55.155Z,96.55
2018-03-04T03:22:22.689Z,97.30
2018-03-04T03:24:50.304Z,97.40
2018-03-04T03:27:18.853Z,97.32
2018-03-04T03:29:46.520Z,97.34
2018-03-04T03:32:14.423Z,97.11
2018-03-04T03:34:41.938Z,96.82
2018-03-04T03:37:09.583Z,97.03
2018-03-04T03:39:37.230Z,97.17
2018-03-04T03:42:05.583Z,97.49
2018-03-04T03:44:33.269Z,97.35
2018-03-04T03:47:00.939Z,97.05
2018-03-04T03:49:28.553Z,96.80
2018-03-04T03:51:56.145Z,96.67
2018-03-04T03:54:23.764Z,96.57
2018-03-04T03:56:51.578Z,95.62
2018-03-04T03:59:19.213Z,94.76
2018-03-04T04:01:47.153Z,94.95
2018-03-04T04:04:15.430Z,95.18
2018-03-04T04:06:43.517Z,95.52
2018-03-04T04:09:11.043Z,96.46
2018-03-04T04:11:38.608Z,96.60
2018-03-04T04:14:06.320Z,96.61
2018-03-04T04:16:33.873Z,95.32
2018-03-04T04:19:01.708Z,95.15
2018-03-04T04:21:29.245Z,95.29
2018-03-04T04:23:57.738Z,95.67
2018-03-04T04:26:25.324Z,96.28
2018-03-04T04:28:52.981Z,96.19
2018-03-04T04:31:20.833Z,96.71
2018-03-04T04:33:48.553Z,96.99
2018-03-04T04:36:16.177Z,97.16
2018-03-04T04:38:43.812Z,97.29
2018-03-04T04:41:12.607Z,97.20
2018-03-04T04:43:40.479Z,96.95
2018-03-04T04:46:08.290Z,96.94
2018-03-04T04:48:35.829Z,96.65
2018-03-04T04:51:03.464Z,96.13
2018-03-04T04:53:31.159Z,96.40
2018-03-04T04:55:58.798Z,96.28
2018-03-04T04:58:26.470Z,95.77
2018-03-04T05:00:54.063Z,94.15
2018-03-04T05:03:21.605Z,94.34
2018-03-04T05:05:49.234Z,94.96
2018-03-04T05:08:17.069Z,95.29
2018-03-04T05:10:44.647Z,95.33
2018-03-04T05:13:12.293Z,94.88
2018-03-04T05:15:39.928Z,94.07
2018-03-04T05:18:08.418Z,94.91
2018-03-04T05:20:36.228Z,96.47
2018-03-04T05:23:03.942Z,96.84
2018-03-04T05:25:31.474Z,97.79
2018-03-04T05:27:59.054Z,98.16
2018-03-04T05:30:26.621Z,97.79
2018-03-04T05:32:54.330Z,97.62
2018-03-04T05:35:21.968Z,96.72
2018-03-04T05:37:50.623Z,96.99
2018-03-04T05:40:18.232Z,96.90
2018-03-04T05:42:45.809Z,96.67
2018-03-04T05:45:13.740Z,95.88
2018-03-04T05:47:41.540Z,95.60
2018-03-04T05:50:09.243Z,94.90
2018-03-04T05:52:36.784Z,95.04
2018-03-04T05:55:04.443Z,95.18
2018-03-04T05:57:32.074Z,94.99
2018-03-04T06:00:00.548Z,94.30
2018-03-04T06:02:28.285Z,93.85
2018-03-04T06:04:55.822Z,93.83
2018-03-04T06:07:23.619Z,93.79
2018-03-04T06:09:51.303Z,93.38
2018-03-04T06:12:19.056Z,94.23
2018-03-04T06:14:46.689Z,94.12
2018-03-04T06:17:14.213Z,94.78
2018-03-04T06:19:41.749Z,94.69
2018-03-04T06:22:09.769Z,95.20
2018-03-04T06:24:37.530Z,95.03
2018-03-04T06:27:05.149Z,94.40
2018-03-04T06:29:33.000Z,93.85
2018-03-04T06:32:00.638Z,93.82
2018-03-04T06:34:28.180Z,93.92
2018-03-04T06:36:55.925Z,93.60
2018-03-04T06:39:23.457Z,93.44
2018-03-04T06:41:51.329Z,93.32
2018-03-04T06:44:18.991Z,93.46
2018-03-04T06:46:46.693Z,93.84
2018-03-04T06:49:14.730Z,93.86
2018-03-04T06:51:42.443Z,94.11
2018-03-04T06:54:10.003Z,93.04
2018-03-04T06:56:37.844Z,93.28
2018-03-04T06:59:05.388Z,94.30
2018-03-04T07:01:32.940Z,95.09
2018-03-04T07:04:00.584Z,95.43
2018-03-04T07:06:28.144Z,94.99
2018-03-04T07:08:55.708Z,94.04
2018-03-04T07:11:23.249Z,94.48
2018-03-04T07:13:50.798Z,93.49
2018-03-04T07:16:18.368Z,93.04
2018-03-04T07:18:46.608Z,91.55
2018-03-04T07:21:14.220Z,91.22
2018-03-04T07:23:41.904Z,91.24
2018-03-04T07:26:09.638Z,90.43
2018-03-04T07:28:37.292Z,89.48
2018-03-04T07:31:05.054Z,88.36
2018-03-04T07:33:32.708Z,89.85
2018-03-04T07:36:00.293Z,88.54
2018-03-04T07:38:27.855Z,88.21
2018-03-04T07:40:55.638Z,87.18
2018-03-04T07:43:23.179Z,85.47
2018-03-04T07:45:50.912Z,84.52
2018-03-04T07:48:18.744Z,84.04
2018-03-04T07:50:46.278Z,85.60
2018-03-04T07:53:14.884Z,85.95
2018-03-04T07:55:42.423Z,84.36
2018-03-04T07:58:10.090Z,84.90
2018-03-04T08:00:38.630Z,82.77
2018-03-04T08:03:07.173Z,83.09
2018-03-04T08:05:34.900Z,81.28
2018-03-04T08:08:02.565Z,82.08
2018-03-04T08:10:30.389Z,79.95
2018-03-04T08:12:58.127Z,80.24
2018-03-04T08:15:25.758Z,82.24
2018-03-04T08:17:53.414Z,80.56
2018-03-04T08:20:21.165Z,78.90
2018-03-04T08:22:48.734Z,75.49
2018-03-04T08:25:28.258Z,75.69
2018-03-04T08:28:07.924Z,73.06
2018-03-04T08:30:35.612Z,73.14
2018-03-04T08:33:03.192Z,67.73
2018-03-04T08:35:31.102Z,70.59
2018-03-04T08:37:58.649Z,69.30
2018-03-04T08:40:26.404Z,66.79
2018-03-04T08:42:54.029Z,69.16
2018-03-04T08:45:21.799Z,68.09
2018-03-04T08:47:49.359Z,68.99
2018-03-04T08:50:17.219Z,68.40
2018-03-04T08:52:44.869Z,67.53
2018-03-04T08:55:12.589Z,68.67
2018-03-04T08:57:40.275Z,67.54
2018-03-04T09:00:08.805Z,65.22
2018-03-04T09:02:36.558Z,61.75
2018-03-04T09:05:04.114Z,60.96
2018-03-04T09:07:31.907Z,57.83
2018-03-04T09:09:59.462Z,56.29
2018-03-04T09:12:27.200Z,55.22
2018-03-04T09:14:54.754Z,52.05
2018-03-04T09:17:22.554Z,50.87
2018-03-04T09:19:50.234Z,52.54
2018-03-04T09:22:17.875Z,50.46
2018-03-04T09:24:45.490Z,50.50
2018-03-04T09:27:13.504Z,41.65
2018-03-04T09:29:41.069Z,39.63
2018-03-04T09:32:08.731Z,38.46
2018-03-04T09:34:36.245Z,40.55
2018-03-04T09:37:03.879Z,41.78
2018-03-04T09:39:31.546Z,36.74
2018-03-04T09:41:59.134Z,43.42
2018-03-04T09:44:26.824Z,47.46
2018-03-04T09:46:55.388Z,47.04
2018-03-04T09:49:23.015Z,42.72
2018-03-04T09:51:50.870Z,37.60
2018-03-04T09:54:18.609Z,37.55
2018-03-04T09:56:46.392Z,33.09
2018-03-04T09:59:14.054Z,31.94
2018-03-04T10:01:41.810Z,31.46
2018-03-04T10:04:09.376Z,32.17
2018-03-04T10:06:37.193Z,33.32
2018-03-04T10:09:04.813Z,39.58
2018-03-04T10:11:32.759Z,35.93
2018-03-04T10:14:00.309Z,37.90
2018-03-04T10:16:27.928Z,35.37
2018-03-04T10:18:55.948Z,33.34
2018-03-04T10:21:23.722Z,28.98
2018-03-04T10:23:51.408Z,29.35
2018-03-04T10:26:18.970Z,29.47
2018-03-04T10:28:46.729Z,28.94
2018-03-04T10:31:14.469Z,28.47
2018-03-04T10:33:42.129Z,24.18
2018-03-04T10:36:09.766Z,30.41
2018-03-04T10:38:37.535Z,31.15
2018-03-04T10:41:06.098Z,28.31
2018-03-04T10:43:33.806Z,30.68
2018-03-04T10:46:01.678Z,29.91
2018-03-04T10:48:29.310Z,24.37
2018-03-04T10:50:56.859Z,21.46
2018-03-04T10:53:24.573Z,19.93
2018-03-04T10:55:52.103Z,25.17
2018-03-04T10:58:19.784Z,23.01
2018-03-04T11:00:48.078Z,21.46
2018-03-04T11:03:16.329Z,22.92
2018-03-04T11:05:44.354Z,19.12
2018-03-04T11:08:12.104Z,19.33
2018-03-04T11:10:39.914Z,19.87
2018-03-04T11:13:07.628Z,21.11
2018-03-04T11:15:35.168Z,19.58
2018-03-04T11:18:02.722Z,16.44
2018-03-04T11:20:30.392Z,19.22
2018-03-04T11:22:57.940Z,21.69
2018-03-04T11:25:25.688Z,19.00
2018-03-04T11:27:53.400Z,20.16
2018-03-04T11:30:21.349Z,23.02
2018-03-04T11:32:48.890Z,20.97
2018-03-04T11:35:16.519Z,20.37
2018-03-04T11:37:44.122Z,24.21
2018-03-04T11:40:11.760Z,24.69
2018-03-04T11:42:39.320Z,23.21
2018-03-04T11:45:09.653Z,23.68
2018-03-04T11:47:37.418Z,22.78
2018-03-04T11:50:04.984Z,24.68
2018-03-04T11:52:32.862Z,21.47
2018-03-04T11:55:00.746Z,18.38
2018-03-04T11:57:28.290Z,16.33
2018-03-04T11:59:56.015Z,17.88
2018-03-04T12:02:23.708Z,20.03
2018-03-04T12:04:51.425Z,18.27
2018-03-04T12:07:19.068Z,18.87
2018-03-04T12:09:47.210Z,17.60
2018-03-04T12:12:14.740Z,18.17
2018-03-04T12:14:42.487Z,18.36
2018-03-04T12:17:10.808Z,19.18
2018-03-04T12:19:38.448Z,21.56
2018-03-04T12:22:05.995Z,23.87
2018-03-04T12:24:33.534Z,22.67
2018-03-04T12:27:02.055Z,18.57
2018-03-04T12:29:29.708Z,18.46
2018-03-04T12:31:57.349Z,21.27
2018-03-04T12:34:24.997Z,23.22
2018-03-04T12:36:52.595Z,25.33
2018-03-04T12:39:20.486Z,21.85
2018-03-04T12:41:48.179Z,25.61
2018-03-04T12:44:15.864Z,24.20
2018-03-04T12:46:43.420Z,27.06
2018-03-04T12:49:10.956Z,26.44
2018-03-04T12:51:38.674Z,24.24
2018-03-04T12:54:06.404Z,23.60
2018-03-04T12:56:34.959Z,24.61
2018-03-04T12:59:02.525Z,20.05
2018-03-04T13:01:30.223Z,16.86
2018-03-04T13:03:57.860Z,20.13
2018-03-04T13:06:25.393Z,18.28
2018-03-04T13:08:52.966Z,21.56
2018-03-04T13:11:20.845Z,22.91
2018-03-04T13:13:48.725Z,25.27
2018-03-04T13:16:16.565Z,27.69
2018-03-04T13:18:44.320Z,30.05
2018-03-04T13:21:12.058Z,31.15
2018-03-04T13:23:39.802Z,33.10
2018-03-04T13:26:07.755Z,32.89
2018-03-04T13:28:35.435Z,31.53
2018-03-04T13:31:03.159Z,34.16
2018-03-04T13:33:31.050Z,34.54
2018-03-04T13:35:59.310Z,36.01
2018-03-04T13:38:27.032Z,35.34
2018-03-04T13:40:54.688Z,34.38
2018-03-04T13:43:22.317Z,32.56
2018-03-04T13:45:50.229Z,31.39
2018-03-04T13:48:17.894Z,29.99
2018-03-04T13:50:45.427Z,29.51
2018-03-04T13:53:12.978Z,28.78
2018-03-04T13:55:40.839Z,30.65
2018-03-04T13:58:08.538Z,28.99
2018-03-04T14:00:36.398Z,27.20
2018-03-04T14:03:04.191Z,26.70
2018-03-04T14:05:31.880Z,26.14
2018-03-04T14:07:59.489Z,28.58
2018-03-04T14:10:27.169Z,28.62
2018-03-04T14:12:54.763Z,25.02
2018-03-04T14:15:22.353Z,26.38
2018-03-04T14:17:50.666Z,29.45
2018-03-04T14:20:18.224Z,29.97
2018-03-04T14:22:45.888Z,30.86
2018-03-04T14:25:13.608Z,30.65
2018-03-04T14:27:41.280Z,31.23
2018-03-04T14:30:08.993Z,33.61
2018-03-04T14:32:36.693Z,33.57
2018-03-04T14:35:04.353Z,33.81
2018-03-04T14:37:31.895Z,33.21
2018-03-04T14:39:59.478Z,33.52
2018-03-04T14:42:27.042Z,32.11
2018-03-04T14:44:54.604Z,34.58
2018-03-04T14:47:22.183Z,34.70
2018-03-04T14:49:49.960Z,34.09
2018-03-04T14:52:17.536Z,34.48
2018-03-04T14:54:45.265Z,36.60
2018-03-04T14:57:12.853Z,37.36
2018-03-04T14:59:40.495Z,37.19
2018-03-04T15:02:08.062Z,37.08
2018-03-04T15:04:35.909Z,38.15
2018-03-04T15:07:03.678Z,37.71
2018-03-04T15:09:31.333Z,38.83
2018-03-04T15:11:59.018Z,39.73
2018-03-04T15:14:26.639Z,40.64
2018-03-04T15:16:54.422Z,40.32
2018-03-04T15:19:22.228Z,41.73
2018-03-04T15:21:50.488Z,41.60
2018-03-04T15:24:18.152Z,42.29
2018-03-04T15:26:45.839Z,42.45
2018-03-04T15:29:13.675Z,42.60
2018-03-04T15:31:41.245Z,42.42
2018-03-04T15:34:09.275Z,42.75
2018-03-04T15:36:36.843Z,42.76
2018-03-04T15:39:04.490Z,43.77
2018-03-04T15:41:32.983Z,43.90
2018-03-04T15:44:00.629Z,42.90
2018-03-04T15:46:28.193Z,42.90
2018-03-04T15:48:55.844Z,43.34
2018-03-04T15:51:24.030Z,42.68
2018-03-04T15:53:51.761Z,42.66
2018-03-04T15:56:19.331Z,43.07
2018-03-04T15:58:46.898Z,43.50
2018-03-04T16:01:14.749Z,43.24
2018-03-04T16:03:42.414Z,43.54
2018-03-04T16:06:10.099Z,45.09
2018-03-04T16:08:38.025Z,45.54
2018-03-04T16:11:05.674Z,46.55
2018-03-04T16:13:33.368Z,47.92
2018-03-04T16:16:01.617Z,47.07
2018-03-04T16:18:29.224Z,47.48
2018-03-04T16:20:57.009Z,47.81
2018-03-04T16:23:24.704Z,47.63
2018-03-04T16:25:52.550Z,48.21
2018-03-04T16:28:20.208Z,48.91
2018-03-04T16:30:47.853Z,49.05
2018-03-04T16:33:15.527Z,49.25
2018-03-04T16:35:43.100Z,49.70
2018-03-04T16:38:10.728Z,50.34
2018-03-04T16:40:39.244Z,51.08
2018-03-04T16:43:06.885Z,50.96
2018-03-04T16:45:34.654Z,51.36
2018-03-04T16:48:02.280Z,51.37
2018-03-04T16:50:30.015Z,51.36
2018-03-04T16:52:57.697Z,51.37
2018-03-04T16:55:25.508Z,50.76
2018-03-04T16:57:53.541Z,50.68
2018-03-04T17:00:21.375Z,51.32
2018-03-04T17:02:49.147Z,51.97
2018-03-04T17:05:16.865Z,52.56
2018-03-04T17:07:44.949Z,54.26
2018-03-04T17:10:12.789Z,55.19
2018-03-04T17:12:40.390Z,55.79
2018-03-04T17:15:08.416Z,55.95
2018-03-04T17:17:35.985Z,57.21
2018-03-04T17:20:03.582Z,57.08
2018-03-04T17:22:31.273Z,57.34
2018-03-04T17:25:00.078Z,57.53
2018-03-04T17:27:27.693Z,57.35
2018-03-04T17:29:55.390Z,57.26
2018-03-04T17:32:23.178Z,57.70
2018-03-04T17:34:50.738Z,57.86
2018-03-04T17:37:18.368Z,56.87
2018-03-04T17:39:47.117Z,57.94
2018-03-04T17:42:14.785Z,58.70
2018-03-04T17:44:43.385Z,59.05
2018-03-04T17:47:11.375Z,58.32
2018-03-04T17:49:39.091Z,59.35
2018-03-04T17:52:06.754Z,60.05
2018-03-04T17:54:34.476Z,60.04
2018-03-04T17:57:02.295Z,60.30
2018-03-04T17:59:30.049Z,61.37
2018-03-04T18:01:57.619Z,61.39
2018-03-04T18:04:25.175Z,61.57
2018-03-04T18:06:53.127Z,63.05
2018-03-04T18:09:20.896Z,63.81
2018-03-04T18:11:48.461Z,65.27
2018-03-04T18:14:16.042Z,66.45
2018-03-04T18:16:43.719Z,65.64
2018-03-04T18:19:11.267Z,65.74
2018-03-04T18:21:38.905Z,67.60
2018-03-04T18:24:07.188Z,68.36
2018-03-04T18:26:35.066Z,67.86
2018-03-04T18:29:02.753Z,67.76
2018-03-04T18:31:30.826Z,68.61
2018-03-04T18:33:58.608Z,68.19
2018-03-04T18:36:26.184Z,68.05
2018-03-04T18:38:53.994Z,67.73
2018-03-04T18:41:21.739Z,67.48
2018-03-04T18:43:49.378Z,67.91
2018-03-04T18:46:17.105Z,69.48
2018-03-04T18:48:44.669Z,70.63
2018-03-04T18:51:12.418Z,69.07
2018-03-04T18:53:40.109Z,68.23
2018-03-04T18:56:08.470Z,68.89
2018-03-04T18:58:37.092Z,69.34
2018-03-04T19:01:04.840Z,69.20
2018-03-04T19:03:32.864Z,70.05
2018-03-04T19:06:00.470Z,71.21
2018-03-04T19:08:28.355Z,70.72
2018-03-04T19:10:56.240Z,72.15
2018-03-04T19:13:24.274Z,71.62
2018-03-04T19:15:51.829Z,71.71
2018-03-04T19:18:19.405Z,71.08
2018-03-04T19:20:47.018Z,69.78
2018-03-04T19:23:14.712Z,72.45
2018-03-04T19:25:42.373Z,71.67
2018-03-04T19:28:10.556Z,68.89
2018-03-04T19:30:38.731Z,69.70
2018-03-04T19:33:06.653Z,71.57
2018-03-04T19:35:34.272Z,71.09
2018-03-04T19:38:01.885Z,71.37
2018-03-04T19:40:29.515Z,72.95
2018-03-04T19:42:57.304Z,72.45
2018-03-04T19:45:24.975Z,71.54
2018-03-04T19:47:53.123Z,71.90
2018-03-04T19:50:20.878Z,71.51
2018-03-04T19:52:48.490Z,73.32
2018-03-04T19:55:16.264Z,74.46
2018-03-04T19:57:44.064Z,73.84
2018-03-04T20:00:11.824Z,74.00
2018-03-04T20:02:39.839Z,73.56
2018-03-04T20:05:07.552Z,72.67
2018-03-04T20:07:35.103Z,72.79
2018-03-04T20:10:02.721Z,72.56
2018-03-04T20:12:30.284Z,73.25
2018-03-04T20:14:57.879Z,73.08
2018-03-04T20:17:25.438Z,72.75
2018-03-04T20:19:53.055Z,72.24
2018-03-04T20:22:20.915Z,74.30
2018-03-04T20:24:49.183Z,76.03
2018-03-04T20:27:17.187Z,75.96
2018-03-04T20:29:45.688Z,75.04
2018-03-04T20:32:13.404Z,74.63
2018-03-04T20:34:41.869Z,76.33
2018-03-04T20:37:09.621Z,76.38
2018-03-04T20:39:37.248Z,75.53
2018-03-04T20:42:05.790Z,76.24
2018-03-04T20:44:34.079Z,75.48
2018-03-04T20:47:01.821Z,75.14
2018-03-04T20:49:29.539Z,74.97
2018-03-04T20:51:57.083Z,73.34
2018-03-04T20:54:24.901Z,73.38
2018-03-04T20:56:52.485Z,73.58
2018-03-04T20:59:20.224Z,74.14
2018-03-04T21:01:47.960Z,74.02
2018-03-04T21:04:15.787Z,73.65
2018-03-04T21:06:43.460Z,73.71
2018-03-04T21:09:11.171Z,74.41
2018-03-04T21:11:39.024Z,74.25
2018-03-04T21:14:06.636Z,74.17
2018-03-04T21:16:34.397Z,75.32
2018-03-04T21:19:02.175Z,76.83
2018-03-04T21:21:29.844Z,75.97
2018-03-04T21:23:57.770Z,75.39
2018-03-04T21:26:25.365Z,75.18
2018-03-04T21:28:53.236Z,76.59
2018-03-04T21:31:21.145Z,76.01
2018-03-04T21:33:48.749Z,74.98
2018-03-04T21:36:16.662Z,76.00
2018-03-04T21:38:44.465Z,75.73
2018-03-04T21:41:12.010Z,77.00
2018-03-04T21:43:39.578Z,78.92
2018-03-04T21:46:07.400Z,78.64
2018-03-04T21:48:35.910Z,78.22
2018-03-04T21:51:03.484Z,77.99
2018-03-04T21:53:31.383Z,78.85
2018-03-04T21:55:59.266Z,78.90
2018-03-04T21:58:26.916Z,78.02
2018-03-04T22:00:54.658Z,77.65
2018-03-04T22:03:22.299Z,77.44
2018-03-04T22:05:49.955Z,78.02
2018-03-04T22:08:17.708Z,77.50
2018-03-04T22:10:45.744Z,76.84
2018-03-04T22:13:13.281Z,77.88
2018-03-04T22:15:41.268Z,79.38
2018-03-04T22:18:08.834Z,79.25
2018-03-04T22:20:36.470Z,78.64
2018-03-04T22:23:05.074Z,79.01
2018-03-04T22:25:32.898Z,77.80
2018-03-04T22:28:00.456Z,77.80
2018-03-04T22:30:28.709Z,77.99
2018-03-04T22:32:56.384Z,80.08
2018-03-04T22:35:23.940Z,80.53
2018-03-04T22:37:51.566Z,80.19
2018-03-04T22:40:19.354Z,78.66
2018-03-04T22:42:47.034Z,78.33
2018-03-04T22:45:14.747Z,78.19
2018-03-04T22:47:42.526Z,79.06
2018-03-04T22:50:10.192Z,79.48
2018-03-04T22:52:37.861Z,82.09
2018-03-04T22:55:05.534Z,82.72
2018-03-04T22:57:33.135Z,81.62
2018-03-04T23:00:01.224Z,80.84
2018-03-04T23:02:28.761Z,79.96
2018-03-04T23:04:56.313Z,79.11
2018-03-04T23:07:24.513Z,80.54
2018-03-04T23:09:52.198Z,82.00
2018-03-04T23:12:19.865Z,81.27
2018-03-04T23:14:47.651Z,80.06
2018-03-04T23:17:15.368Z,78.94
2018-03-04T23:19:43.038Z,78.41
2018-03-04T23:22:10.629Z,77.18
2018-03-04T23:24:38.345Z,80.19
2018-03-04T23:27:05.979Z,80.48
2018-03-04T23:29:33.690Z,79.94
2018-03-04T23:32:01.339Z,79.59
2018-03-04T23:34:28.941Z,80.24
2018-03-04T23:36:56.502Z,80.26
2018-03-04T23:39:24.144Z,79.60
2018-03-04T23:41:52.281Z,80.16
2018-03-04T23:44:19.812Z,80.39
2018-03-04T23:46:47.430Z,80.15
2018-03-04T23:49:14.963Z,79.12
2018-03-04T23:51:42.673Z,80.15
2018-03-04T23:54:10.394Z,80.68
2018-03-04T23:56:38.062Z,80.12
2018-03-04T23:59:05.648Z,80.28
